Time;durP1;ratioP1;P1;durP2;ratioP2;P2;SDS_P1;SDS_P2;PMS_P1;PMS_P2;Temp;Humidity;BMP_temperature;BMP_pressure;BME280_temperature;BME280_humidity;BME280_pressure;Samples;Min_cycle;Max_cycle;Signal;HPM_P1;HPM_P2
2022/05/15 00:01:04;;;;;;;21.50;9.13;;;16.50;64.10;;;;;;5016259;28;20177;-87
2022/05/15 00:03:29;;;;;;;20.40;9.13;;;16.50;63.90;;;;;;5014828;28;20185;-87
2022/05/15 00:06:04;;;;;;;17.60;9.43;;;16.50;64.40;;;;;;5014657;28;20261;-87
2022/05/15 00:08:33;;;;;;;14.13;8.82;;;16.40;64.40;;;;;;5014761;28;20229;-87
2022/05/15 00:10:59;;;;;;;16.88;9.25;;;16.40;64.00;;;;;;5015840;28;20186;-87
2022/05/15 00:13:26;;;;;;;17.30;8.93;;;16.40;64.30;;;;;;5016458;28;20546;-87
2022/05/15 00:15:53;;;;;;;16.52;8.05;;;16.40;64.40;;;;;;5014778;28;20189;-87
2022/05/15 00:18:21;;;;;;;17.60;9.30;;;16.40;64.10;;;;;;5015759;28;20198;-86
2022/05/15 00:20:49;;;;;;;19.75;8.90;;;16.40;63.80;;;;;;5015051;28;20186;-86
2022/05/15 00:23:16;;;;;;;23.45;10.63;;;16.40;64.10;;;;;;5014726;28;20174;-86
2022/05/15 00:25:53;;;;;;;19.20;9.02;;;16.30;65.90;;;;;;5016479;28;20183;-87
2022/05/15 00:28:19;;;;;;;25.70;9.73;;;16.20;66.20;;;;;;5000012;28;20167;-88
2022/05/15 00:30:45;;;;;;;18.08;9.20;;;16.30;65.40;;;;;;5016700;28;20183;-88
2022/05/15 00:33:11;;;;;;;26.13;9.52;;;16.20;65.20;;;;;;5002289;28;20179;-87
2022/05/15 00:35:38;;;;;;;15.17;8.80;;;16.20;64.70;;;;;;5025444;28;20254;-88
2022/05/15 00:38:05;;;;;;;15.38;8.52;;;16.20;64.90;;;;;;5009936;28;20469;-87
2022/05/15 00:40:32;;;;;;;20.55;9.27;;;16.20;64.70;;;;;;5021970;28;20218;-87
2022/05/15 00:42:58;;;;;;;17.02;8.57;;;16.20;64.80;;;;;;4998596;28;20596;-87
2022/05/15 00:45:24;;;;;;;23.73;9.10;;;16.10;64.80;;;;;;5000256;28;20181;-86
2022/05/15 00:47:50;;;;;;;16.08;9.00;;;16.10;64.90;;;;;;5012752;28;20434;-86
2022/05/15 00:50:42;;;;;;;21.38;10.15;;;16.10;65.10;;;;;;5021859;28;20206;-85
2022/05/15 00:53:10;;;;;;;17.85;9.02;;;16.00;65.30;;;;;;4997617;28;20178;-85
2022/05/15 00:55:40;;;;;;;19.08;9.43;;;16.00;65.60;;;;;;5012735;28;20186;-85
2022/05/15 00:58:15;;;;;;;22.13;9.30;;;16.00;65.50;;;;;;5014618;28;20256;-85
2022/05/15 01:00:42;;;;;;;20.92;10.95;;;16.00;65.40;;;;;;4994531;28;20658;-85
2022/05/15 01:03:14;;;;;;;16.27;9.88;;;16.00;64.60;;;;;;4994285;28;20766;-85
2022/05/15 01:05:44;;;;;;;21.23;9.80;;;16.00;64.80;;;;;;5000297;28;20171;-87
2022/05/15 01:08:09;;;;;;;19.92;8.82;;;15.90;66.10;;;;;;5001108;28;20183;-86
2022/05/15 01:11:18;;;;;;;21.40;10.93;;;15.90;65.30;;;;;;5018203;28;20210;-86
2022/05/15 01:13:44;;;;;;;22.58;8.77;;;15.90;65.30;;;;;;5001191;28;20391;-86
2022/05/15 01:16:12;;;;;;;14.20;8.35;;;15.90;65.50;;;;;;4995633;28;20241;-86
2022/05/15 01:18:39;;;;;;;21.95;9.88;;;15.90;65.10;;;;;;5007533;28;20681;-85
2022/05/15 01:21:22;;;;;;;17.38;8.70;;;15.80;65.90;;;;;;5021995;28;20171;-86
2022/05/15 01:23:48;;;;;;;17.27;10.20;;;15.80;65.50;;;;;;5023877;28;20166;-85
2022/05/15 01:26:14;;;;;;;16.58;9.40;;;15.80;65.90;;;;;;5015167;28;20190;-85
2022/05/15 01:28:40;;;;;;;27.35;10.63;;;15.80;65.60;;;;;;4996222;28;20285;-86
2022/05/15 01:31:06;;;;;;;23.45;10.10;;;15.70;66.10;;;;;;4996689;28;20187;-86
2022/05/15 01:33:32;;;;;;;19.17;10.80;;;15.70;65.70;;;;;;4996688;28;20179;-85
2022/05/15 01:35:58;;;;;;;29.67;10.73;;;15.60;67.30;;;;;;4996581;28;20561;-85
2022/05/15 01:38:23;;;;;;;25.60;10.90;;;15.60;66.30;;;;;;5012435;28;20602;-86
2022/05/15 01:40:50;;;;;;;18.63;9.70;;;15.60;66.00;;;;;;5013256;28;20175;-86
2022/05/15 01:43:16;;;;;;;24.15;9.73;;;15.60;66.00;;;;;;5013499;28;20417;-85
2022/05/15 01:45:42;;;;;;;18.27;10.50;;;15.60;65.80;;;;;;5014472;28;20194;-85
2022/05/15 01:48:08;;;;;;;29.13;10.07;;;15.50;66.40;;;;;;5013608;28;20179;-85
2022/05/15 01:50:34;;;;;;;24.67;10.07;;;15.50;67.20;;;;;;5012475;28;20459;-85
2022/05/15 01:53:00;;;;;;;18.13;9.45;;;15.50;66.40;;;;;;5012699;28;20182;-86
2022/05/15 01:55:26;;;;;;;19.77;9.67;;;15.50;66.80;;;;;;5013444;28;20659;-86
2022/05/15 01:57:52;;;;;;;18.87;10.50;;;15.40;66.90;;;;;;5014612;28;20277;-86
2022/05/15 02:00:23;;;;;;;20.30;9.90;;;15.50;67.30;;;;;;4996209;28;20202;-85
2022/05/15 02:02:49;;;;;;;24.90;10.32;;;15.40;67.70;;;;;;5013452;28;20412;-85
2022/05/15 02:05:15;;;;;;;16.35;9.50;;;15.40;67.40;;;;;;5014034;28;20209;-86
2022/05/15 02:07:41;;;;;;;26.85;11.15;;;15.40;67.00;;;;;;5018503;28;20236;-86
2022/05/15 02:10:08;;;;;;;22.73;10.88;;;15.40;66.30;;;;;;5016565;28;20206;-85
2022/05/15 02:12:34;;;;;;;19.25;10.65;;;15.30;66.70;;;;;;5016251;28;20272;-85
2022/05/15 02:15:02;;;;;;;18.33;10.10;;;15.30;67.50;;;;;;5017092;28;20646;-86
2022/05/15 02:17:28;;;;;;;22.45;10.43;;;15.30;67.00;;;;;;5017708;28;20334;-86
2022/05/15 02:19:54;;;;;;;18.13;9.93;;;15.30;66.60;;;;;;5017628;28;20611;-86
2022/05/15 02:22:19;;;;;;;24.57;10.23;;;15.30;68.20;;;;;;5016316;28;20268;-85
2022/05/15 02:24:45;;;;;;;27.90;10.47;;;15.30;68.30;;;;;;5000109;28;20202;-86
2022/05/15 02:27:11;;;;;;;30.23;11.10;;;15.30;67.20;;;;;;5017537;28;20166;-85
2022/05/15 02:29:37;;;;;;;20.70;11.13;;;15.20;68.50;;;;;;5000056;28;20210;-86
2022/05/15 02:32:03;;;;;;;22.03;11.70;;;15.10;69.40;;;;;;5000072;28;21154;-86
2022/05/15 02:34:29;;;;;;;21.45;9.32;;;15.10;68.40;;;;;;5015814;28;20414;-86
2022/05/15 02:36:55;;;;;;;22.37;10.63;;;15.10;69.00;;;;;;5015649;28;20201;-86
2022/05/15 02:39:21;;;;;;;20.63;9.70;;;15.10;69.20;;;;;;5015928;28;20501;-86
2022/05/15 02:41:47;;;;;;;24.57;11.37;;;15.00;70.60;;;;;;5015777;28;20186;-86
2022/05/15 02:44:12;;;;;;;25.47;11.17;;;15.10;68.30;;;;;;4999631;28;20178;-85
2022/05/15 02:46:38;;;;;;;29.20;10.70;;;15.10;69.80;;;;;;5015956;28;20670;-86
2022/05/15 02:51:48;;;;;;;21.88;11.23;;;15.00;70.40;;;;;;5017458;28;20448;-86
2022/05/15 02:54:14;;;;;;;21.33;10.10;;;15.00;68.10;;;;;;5015722;28;20186;-85
2022/05/15 02:56:41;;;;;;;17.75;10.27;;;15.00;68.00;;;;;;5017558;28;20504;-86
2022/05/15 02:59:07;;;;;;;20.52;10.43;;;15.00;68.00;;;;;;5017178;28;20221;-85
2022/05/15 03:01:34;;;;;;;24.83;10.27;;;14.90;67.40;;;;;;5000041;28;20179;-85
2022/05/15 03:04:00;;;;;;;20.27;10.13;;;14.90;68.50;;;;;;5016295;28;20666;-85
2022/05/15 03:06:26;;;;;;;25.80;10.90;;;14.90;68.20;;;;;;5016518;28;20196;-86
2022/05/15 03:08:52;;;;;;;22.83;9.90;;;14.90;68.20;;;;;;5015451;28;20293;-86
2022/05/15 03:11:19;;;;;;;22.17;10.50;;;14.90;67.90;;;;;;5015349;28;20317;-86
2022/05/15 03:13:45;;;;;;;18.33;9.35;;;14.90;67.40;;;;;;5015307;28;20194;-85
2022/05/15 03:16:13;;;;;;;23.48;11.07;;;14.80;67.50;;;;;;5015473;28;20182;-85
2022/05/15 03:18:44;;;;;;;23.33;9.60;;;14.90;66.80;;;;;;5015607;28;20215;-85
2022/05/15 03:21:12;;;;;;;17.63;8.20;;;14.80;67.40;;;;;;5021343;28;20725;-86
2022/05/15 03:23:39;;;;;;;21.55;10.13;;;14.80;68.70;;;;;;5023408;28;20177;-86
2022/05/15 03:26:04;;;;;;;30.35;10.63;;;14.80;67.30;;;;;;5023978;28;20175;-86
2022/05/15 03:28:30;;;;;;;20.33;9.00;;;14.80;66.70;;;;;;5019637;28;20171;-86
2022/05/15 03:30:56;;;;;;;23.50;9.50;;;14.90;66.50;;;;;;5020456;28;20178;-86
2022/05/15 03:33:22;;;;;;;14.60;9.93;;;14.90;66.20;;;;;;5022576;28;20182;-85
2022/05/15 03:35:48;;;;;;;19.00;9.00;;;14.80;67.10;;;;;;5026923;28;20591;-85
2022/05/15 03:38:14;;;;;;;24.43;10.27;;;14.80;66.40;;;;;;5027961;28;20467;-85
2022/05/15 03:40:39;;;;;;;26.63;10.77;;;14.70;66.80;;;;;;5029804;28;20185;-86
2022/05/15 03:43:05;;;;;;;21.60;11.20;;;14.70;66.70;;;;;;5038620;28;20421;-86
2022/05/15 03:45:36;;;;;;;20.37;9.60;;;14.70;67.60;;;;;;5023918;28;20187;-85
2022/05/15 03:48:04;;;;;;;17.58;10.60;;;14.60;66.90;;;;;;5017165;28;20421;-85
2022/05/15 03:50:30;;;;;;;27.42;9.63;;;14.60;67.10;;;;;;5018020;28;20297;-86
2022/05/15 03:52:57;;;;;;;23.65;8.35;;;14.60;67.10;;;;;;5018237;28;20233;-86
2022/05/15 03:55:23;;;;;;;15.82;8.73;;;14.50;67.20;;;;;;5029874;28;20185;-86
2022/05/15 03:57:55;;;;;;;21.90;9.73;;;14.60;67.10;;;;;;5026937;28;20202;-86
2022/05/15 04:00:21;;;;;;;23.58;10.32;;;14.50;67.20;;;;;;5014524;28;20293;-86
2022/05/15 04:02:47;;;;;;;20.03;11.00;;;14.50;68.20;;;;;;5014537;28;20385;-85
2022/05/15 04:05:13;;;;;;;24.13;10.20;;;14.40;68.80;;;;;;5017253;28;20681;-85
2022/05/15 04:07:44;;;;;;;17.53;9.43;;;14.50;67.90;;;;;;5015155;28;20189;-85
2022/05/15 04:10:11;;;;;;;27.80;10.38;;;14.50;67.70;;;;;;5014339;28;20441;-86
2022/05/15 04:12:37;;;;;;;21.55;9.55;;;14.50;67.80;;;;;;5015157;28;20182;-86
2022/05/15 04:15:03;;;;;;;25.90;10.50;;;14.50;67.70;;;;;;5014430;28;20325;-86
2022/05/15 04:17:29;;;;;;;22.73;9.45;;;14.50;67.30;;;;;;5014079;28;20345;-86
2022/05/15 04:19:55;;;;;;;21.50;10.57;;;14.50;68.30;;;;;;5014218;28;20454;-86
2022/05/15 04:22:21;;;;;;;17.10;9.30;;;14.50;67.50;;;;;;5014454;28;20178;-86
2022/05/15 04:24:46;;;;;;;21.77;10.20;;;14.50;67.60;;;;;;5014762;28;20232;-86
2022/05/15 04:27:12;;;;;;;17.40;9.20;;;14.50;68.00;;;;;;4997857;28;20265;-86
2022/05/15 04:29:38;;;;;;;20.70;9.70;;;14.40;68.00;;;;;;4997526;28;20202;-86
2022/05/15 04:32:04;;;;;;;19.97;9.43;;;14.60;67.50;;;;;;4997713;28;20185;-86
2022/05/15 04:34:30;;;;;;;20.08;9.45;;;14.50;67.90;;;;;;5015008;28;20659;-86
2022/05/15 04:36:57;;;;;;;24.50;9.53;;;14.60;67.10;;;;;;5015672;28;20171;-85
2022/05/15 04:39:22;;;;;;;31.48;10.15;;;14.60;67.50;;;;;;5015278;28;20210;-86
2022/05/15 04:41:48;;;;;;;21.47;9.73;;;14.60;67.10;;;;;;5013638;28;20232;-86
2022/05/15 04:44:14;;;;;;;19.10;9.37;;;14.70;66.80;;;;;;5015336;28;20179;-86
2022/05/15 04:46:40;;;;;;;22.97;10.77;;;14.80;66.40;;;;;;5014004;28;20174;-86
2022/05/15 04:49:10;;;;;;;22.95;9.70;;;14.70;66.70;;;;;;5013755;28;20281;-86
2022/05/15 04:51:36;;;;;;;25.15;10.65;;;14.70;66.60;;;;;;5016039;28;20167;-87
2022/05/15 04:54:01;;;;;;;21.40;9.20;;;14.80;66.40;;;;;;5015220;28;20233;-86
2022/05/15 04:56:28;;;;;;;24.23;9.30;;;14.70;66.70;;;;;;5017660;28;20186;-86
2022/05/15 04:58:53;;;;;;;25.92;9.73;;;14.70;66.70;;;;;;5013954;28;20218;-86
2022/05/15 05:01:19;;;;;;;19.90;9.23;;;14.80;66.90;;;;;;5015307;28;20274;-86
2022/05/15 05:03:45;;;;;;;16.90;9.67;;;14.80;66.80;;;;;;5014702;28;20318;-86
2022/05/15 05:06:11;;;;;;;19.40;9.33;;;14.80;66.60;;;;;;4997339;28;20237;-86
2022/05/15 05:08:37;;;;;;;26.65;10.75;;;14.80;66.70;;;;;;5014567;28;20195;-86
2022/05/15 05:11:03;;;;;;;20.42;10.27;;;14.90;66.50;;;;;;5014857;28;20240;-87
2022/05/15 05:13:35;;;;;;;18.00;10.80;;;15.10;66.00;;;;;;5013336;28;20586;-87
2022/05/15 05:16:01;;;;;;;15.02;9.18;;;15.10;65.60;;;;;;5013393;28;20939;-86
2022/05/15 05:18:27;;;;;;;18.27;9.60;;;15.30;65.50;;;;;;5013406;28;20206;-86
2022/05/15 05:20:52;;;;;;;28.63;10.10;;;15.40;65.30;;;;;;5013620;28;20178;-86
2022/05/15 05:23:18;;;;;;;16.20;9.97;;;15.70;65.20;;;;;;5016607;28;20185;-87
2022/05/15 05:25:44;;;;;;;21.77;10.80;;;16.00;63.50;;;;;;5018444;28;20265;-86
2022/05/15 05:28:10;;;;;;;23.10;10.37;;;16.20;62.80;;;;;;5000993;28;20177;-86
2022/05/15 05:30:37;;;;;;;20.00;10.85;;;16.50;62.30;;;;;;5012961;28;20194;-87
2022/05/15 05:33:04;;;;;;;19.38;9.45;;;16.80;60.80;;;;;;5014478;28;20202;-87
2022/05/15 05:35:30;;;;;;;25.15;10.40;;;17.10;59.80;;;;;;5013072;28;20870;-86
2022/05/15 05:37:56;;;;;;;14.65;8.30;;;17.40;58.80;;;;;;5014209;28;20245;-86
2022/05/15 05:40:37;;;;;;;19.40;9.30;;;17.80;58.20;;;;;;5014453;28;20195;-86
2022/05/15 05:43:04;;;;;;;17.40;10.15;;;18.10;57.10;;;;;;5013988;28;20664;-86
2022/05/15 05:45:30;;;;;;;19.85;9.82;;;18.40;55.60;;;;;;5013494;28;20272;-87
2022/05/15 05:47:56;;;;;;;17.13;9.52;;;18.80;54.90;;;;;;5014544;28;20645;-86
2022/05/15 05:50:25;;;;;;;17.95;9.23;;;18.90;54.10;;;;;;5014464;28;20198;-86
2022/05/15 05:52:52;;;;;;;20.50;9.43;;;18.90;54.30;;;;;;5003861;28;20656;-86
2022/05/15 05:55:19;;;;;;;17.17;9.38;;;19.10;54.50;;;;;;5020925;28;20254;-86
2022/05/15 05:57:45;;;;;;;18.83;9.40;;;19.30;53.00;;;;;;5000580;28;20199;-87
2022/05/15 06:00:15;;;;;;;22.85;9.00;;;19.40;52.70;;;;;;5000932;28;20234;-87
2022/05/15 06:02:41;;;;;;;20.58;9.00;;;19.70;52.60;;;;;;4997870;28;20171;-87
2022/05/15 06:05:07;;;;;;;21.63;10.60;;;20.10;51.80;;;;;;5003161;28;20182;-87
2022/05/15 06:07:35;;;;;;;17.17;8.63;;;20.50;50.20;;;;;;5008415;28;20171;-86
2022/05/15 06:10:02;;;;;;;13.67;9.10;;;20.60;50.20;;;;;;5008604;28;20446;-86
2022/05/15 06:12:28;;;;;;;18.07;9.60;;;21.00;49.90;;;;;;5010873;28;20429;-85
2022/05/15 06:14:54;;;;;;;20.90;8.73;;;21.20;48.60;;;;;;5012832;28;20407;-85
2022/05/15 06:17:21;;;;;;;14.80;9.30;;;21.50;48.10;;;;;;5011457;28;20260;-86
2022/05/15 06:19:47;;;;;;;19.33;9.07;;;21.60;47.30;;;;;;5001858;28;20266;-86
2022/05/15 06:22:13;;;;;;;21.40;8.23;;;21.80;46.70;;;;;;5002747;28;20482;-86
2022/05/15 06:24:41;;;;;;;14.77;8.87;;;21.90;46.70;;;;;;5014597;28;20433;-86
2022/05/15 06:27:08;;;;;;;16.07;9.27;;;22.20;46.40;;;;;;5021721;28;20167;-86
2022/05/15 06:29:39;;;;;;;18.37;8.60;;;22.30;46.00;;;;;;5016743;28;20430;-86
2022/05/15 06:32:06;;;;;;;20.00;9.00;;;22.60;45.10;;;;;;5015759;28;20402;-85
2022/05/15 06:34:32;;;;;;;19.00;9.80;;;22.80;44.80;;;;;;5014165;28;20417;-86
2022/05/15 06:36:58;;;;;;;17.27;8.87;;;23.00;43.40;;;;;;5013724;28;20420;-86
2022/05/15 06:39:24;;;;;;;12.70;8.03;;;23.20;43.50;;;;;;5012094;28;20457;-86
2022/05/15 06:41:50;;;;;;;15.33;9.23;;;23.40;43.50;;;;;;5012913;28;20610;-86
2022/05/15 06:44:20;;;;;;;17.73;8.83;;;23.60;42.60;;;;;;5013062;28;20453;-86
2022/05/15 06:46:46;;;;;;;12.40;8.80;;;23.90;41.90;;;;;;5012908;28;20449;-85
2022/05/15 06:49:13;;;;;;;21.00;8.67;;;24.00;42.00;;;;;;5016784;28;20438;-87
2022/05/15 06:51:39;;;;;;;19.10;10.03;;;24.20;40.70;;;;;;5012656;28;20430;-86
2022/05/15 06:54:05;;;;;;;13.30;9.40;;;24.40;41.10;;;;;;5015704;28;20496;-88
2022/05/15 06:59:23;;;;;;;16.20;9.33;;;24.10;40.20;;;;;;5018610;28;20268;-87
2022/05/15 07:01:48;;;;;;;15.00;8.83;;;24.20;41.20;;;;;;5017558;28;20429;-87
2022/05/15 07:04:14;;;;;;;15.67;8.50;;;24.30;40.80;;;;;;5017463;28;20170;-88
2022/05/15 07:06:40;;;;;;;21.23;9.30;;;24.50;41.10;;;;;;5018662;28;20178;-87
2022/05/15 07:09:06;;;;;;;18.33;8.80;;;24.50;40.70;;;;;;5019877;28;20194;-87
2022/05/15 07:11:32;;;;;;;13.30;8.07;;;24.30;40.10;;;;;;5018138;28;20420;-86
2022/05/15 07:13:58;;;;;;;17.97;9.43;;;24.00;41.70;;;;;;5016292;28;20175;-87
2022/05/15 07:16:23;;;;;;;14.97;9.10;;;23.90;41.00;;;;;;5016512;28;20179;-87
2022/05/15 07:18:49;;;;;;;16.47;9.13;;;23.50;42.10;;;;;;5016171;28;20229;-88
2022/05/15 07:21:15;;;;;;;16.03;9.27;;;23.40;42.30;;;;;;4999854;28;20169;-87
2022/05/15 07:23:41;;;;;;;14.10;8.57;;;23.10;43.20;;;;;;5016677;28;20178;-87
2022/05/15 07:26:07;;;;;;;13.83;9.00;;;22.70;44.10;;;;;;4999747;28;20604;-88
2022/05/15 07:28:33;;;;;;;12.50;9.10;;;22.40;45.40;;;;;;4999743;28;20425;-88
2022/05/15 07:30:58;;;;;;;17.17;9.40;;;22.20;45.80;;;;;;5016124;28;20778;-88
2022/05/15 07:33:26;;;;;;;13.27;8.20;;;21.90;46.40;;;;;;5015306;28;20248;-86
2022/05/15 07:35:54;;;;;;;18.73;9.40;;;21.60;47.30;;;;;;5014816;28;20286;-86
2022/05/15 07:38:21;;;;;;;16.20;8.93;;;21.40;48.10;;;;;;5015890;28;20457;-87
2022/05/15 07:40:47;;;;;;;18.27;9.97;;;21.10;48.80;;;;;;4998904;28;20421;-86
2022/05/15 07:43:13;;;;;;;21.30;10.63;;;21.00;49.10;;;;;;5014648;28;20433;-87
2022/05/15 07:45:39;;;;;;;16.77;9.63;;;20.90;49.90;;;;;;5015027;28;20417;-87
2022/05/15 07:48:06;;;;;;;16.83;9.43;;;20.80;50.00;;;;;;4999565;28;20437;-86
2022/05/15 07:50:33;;;;;;;10.67;8.33;;;20.80;50.60;;;;;;5008898;28;20452;-86
2022/05/15 07:53:18;;;;;;;17.10;9.63;;;20.80;50.90;;;;;;5014644;28;20429;-87
2022/05/15 07:55:44;;;;;;;16.43;8.87;;;20.80;50.30;;;;;;5014346;28;20418;-86
2022/05/15 07:58:10;;;;;;;17.50;9.30;;;20.80;49.50;;;;;;5015797;28;21008;-87
2022/05/15 08:00:35;;;;;;;14.73;8.20;;;20.80;50.10;;;;;;5014981;28;20438;-86
2022/05/15 08:03:10;;;;;;;16.83;9.90;;;20.80;50.30;;;;;;5013784;28;20178;-86
2022/05/15 08:08:22;;;;;;;14.60;8.47;;;20.70;50.50;;;;;;5016031;28;20479;-86
2022/05/15 08:10:48;;;;;;;14.13;9.00;;;20.60;51.00;;;;;;5014033;28;20436;-87
2022/05/15 08:13:17;;;;;;;12.93;8.53;;;20.70;51.20;;;;;;5014144;28;20418;-87
2022/05/15 08:15:43;;;;;;;20.93;9.87;;;20.80;50.60;;;;;;5013874;28;20968;-87
2022/05/15 08:23:47;;;;;;;11.67;7.67;;;21.00;50.00;;;;;;5015014;28;20471;-87
2022/05/15 08:26:13;;;;;;;14.40;8.10;;;21.10;50.00;;;;;;5015789;28;20413;-87
2022/05/15 08:28:39;;;;;;;11.23;7.40;;;21.20;49.50;;;;;;5015216;28;20499;-87
2022/05/15 08:31:07;;;;;;;14.63;7.60;;;21.20;49.40;;;;;;5015278;28;20452;-87
2022/05/15 08:33:33;;;;;;;9.63;5.83;;;21.20;49.40;;;;;;5015099;28;20468;-87
2022/05/15 08:35:59;;;;;;;14.53;7.97;;;21.40;49.20;;;;;;5014782;28;20532;-87
2022/05/15 08:38:25;;;;;;;16.20;7.80;;;21.50;48.50;;;;;;5014540;28;20453;-87
2022/05/15 08:41:09;;;;;;;12.20;8.30;;;21.50;48.00;;;;;;5015704;28;20418;-88
2022/05/15 08:43:43;;;;;;;12.43;7.60;;;21.50;47.90;;;;;;5017527;28;20799;-91
2022/05/15 08:46:24;;;;;;;17.30;8.33;;;21.50;48.20;;;;;;5033673;28;20516;-90
2022/05/15 08:48:53;;;;;;;10.50;7.30;;;21.50;47.90;;;;;;5037799;28;20429;-89
2022/05/15 08:51:19;;;;;;;10.17;6.70;;;21.60;48.00;;;;;;5036405;28;20524;-89
2022/05/15 08:53:49;;;;;;;13.50;7.70;;;21.60;48.00;;;;;;5026948;28;20444;-89
2022/05/15 08:56:16;;;;;;;14.03;7.10;;;21.70;47.10;;;;;;5031638;28;20445;-90
2022/05/15 08:58:51;;;;;;;11.00;6.10;;;21.80;46.80;;;;;;5018451;28;20477;-90
2022/05/15 09:01:24;;;;;;;8.33;5.90;;;21.80;46.60;;;;;;5016055;28;20425;-90
2022/05/15 09:03:50;;;;;;;9.27;6.10;;;22.00;46.10;;;;;;5013048;28;20429;-90
2022/05/15 09:06:37;;;;;;;11.67;5.20;;;22.00;45.30;;;;;;4993548;28;20425;-90
2022/05/15 09:09:48;;;;;;;10.80;5.87;;;22.10;46.20;;;;;;4994319;28;20449;-90
2022/05/15 09:12:20;;;;;;;7.07;5.73;;;22.20;46.90;;;;;;4989804;28;20430;-90
2022/05/15 09:15:00;;;;;;;13.00;6.00;;;22.20;44.50;;;;;;5012755;28;20464;-90
2022/05/15 09:17:38;;;;;;;10.50;5.80;;;22.20;44.70;;;;;;5013549;28;20520;-89
2022/05/15 09:20:27;;;;;;;12.47;6.00;;;22.30;44.80;;;;;;5013869;28;20481;-90
2022/05/15 09:23:34;;;;;;;9.57;5.00;;;22.40;43.40;;;;;;5003617;28;20432;-89
2022/05/15 09:26:11;;;;;;;11.93;5.43;;;22.40;42.40;;;;;;5006506;28;20504;-88
2022/05/15 09:28:51;;;;;;;6.90;5.13;;;22.50;42.90;;;;;;5016175;28;20445;-89
2022/05/15 09:31:35;;;;;;;7.97;5.20;;;22.50;43.00;;;;;;5016752;28;20421;-88
2022/05/15 09:34:07;;;;;;;10.70;5.63;;;22.70;42.60;;;;;;5017738;28;20398;-89
2022/05/15 09:36:36;;;;;;;9.63;5.30;;;22.80;42.40;;;;;;5014946;28;20481;-89
2022/05/15 09:39:17;;;;;;;10.63;5.80;;;22.80;42.60;;;;;;4986904;28;20599;-90
2022/05/15 09:44:33;;;;;;;10.70;4.30;;;22.90;40.50;;;;;;5012882;28;20468;-89
2022/05/15 09:47:31;;;;;;;7.67;4.37;;;23.00;40.00;;;;;;5014352;28;20425;-89
2022/05/15 09:49:57;;;;;;;10.03;5.07;;;23.10;41.30;;;;;;5016044;28;20961;-89
2022/05/15 09:52:31;;;;;;;10.10;4.70;;;23.10;39.70;;;;;;5014588;28;20421;-90
2022/05/15 09:55:27;;;;;;;7.63;4.63;;;23.20;39.70;;;;;;4998069;28;20418;-88
2022/05/15 09:57:59;;;;;;;6.73;4.10;;;23.30;39.20;;;;;;5006878;28;20464;-89
2022/05/15 10:00:27;;;;;;;7.97;4.20;;;23.40;38.40;;;;;;5015244;28;20563;-89
2022/05/15 10:02:56;;;;;;;6.97;4.53;;;23.40;37.60;;;;;;5015087;28;20425;-89
2022/05/15 10:05:28;;;;;;;5.23;3.43;;;23.40;37.80;;;;;;5014901;28;20437;-89
2022/05/15 10:07:57;;;;;;;9.20;4.33;;;23.50;39.00;;;;;;4999099;28;20429;-89
2022/05/15 10:10:54;;;;;;;6.27;4.03;;;23.50;40.20;;;;;;5016385;28;20452;-88
2022/05/15 10:13:30;;;;;;;9.80;5.17;;;23.60;40.20;;;;;;4999638;28;20432;-89
2022/05/15 10:16:07;;;;;;;13.27;4.77;;;23.80;38.60;;;;;;5017863;28;20425;-89
2022/05/15 10:19:09;;;;;;;8.93;4.53;;;23.70;38.40;;;;;;5017379;28;20463;-88
2022/05/15 10:21:43;;;;;;;7.80;4.07;;;23.70;39.30;;;;;;5015186;28;20417;-88
2022/05/15 10:24:16;;;;;;;12.30;4.43;;;23.80;39.70;;;;;;5014848;28;20425;-89
2022/05/15 10:27:06;;;;;;;6.33;3.57;;;23.90;38.90;;;;;;5017495;28;21009;-89
2022/05/15 10:29:38;;;;;;;6.80;3.23;;;24.00;38.10;;;;;;5018179;28;20452;-88
2022/05/15 10:32:38;;;;;;;15.37;4.10;;;24.10;38.10;;;;;;5002275;28;20421;-89
2022/05/15 10:35:07;;;;;;;7.37;3.73;;;24.20;37.00;;;;;;5017602;28;20592;-88
2022/05/15 10:37:51;;;;;;;7.47;3.07;;;24.20;37.70;;;;;;5018101;28;20449;-89
2022/05/15 10:40:45;;;;;;;8.03;3.30;;;24.30;35.90;;;;;;5000243;28;20537;-90
2022/05/15 10:43:31;;;;;;;9.23;3.30;;;24.40;35.40;;;;;;5018513;28;20437;-89
2022/05/15 10:46:20;;;;;;;6.20;3.57;;;24.20;35.70;;;;;;5020575;28;20421;-89
2022/05/15 10:49:10;;;;;;;6.80;3.87;;;24.30;36.20;;;;;;4999262;28;20454;-89
2022/05/15 10:51:50;;;;;;;6.00;3.40;;;24.40;36.70;;;;;;5018058;28;20452;-88
2022/05/15 10:57:21;;;;;;;6.20;3.90;;;24.50;35.60;;;;;;5015688;28;20808;-90
2022/05/15 11:00:01;;;;;;;9.80;3.93;;;24.60;36.20;;;;;;4999736;28;21000;-90
2022/05/15 11:02:48;;;;;;;6.53;3.30;;;24.60;35.60;;;;;;5019171;28;20441;-89
2022/05/15 11:05:22;;;;;;;7.30;3.60;;;24.60;35.20;;;;;;5017904;28;20421;-90
2022/05/15 11:07:54;;;;;;;5.87;2.90;;;24.70;34.80;;;;;;5017309;28;20424;-91
2022/05/15 11:10:24;;;;;;;7.17;3.60;;;24.70;34.50;;;;;;5016324;28;20460;-89
2022/05/15 11:13:11;;;;;;;5.93;2.70;;;24.80;36.10;;;;;;5019095;28;20430;-89
2022/05/15 11:16:16;;;;;;;4.50;3.03;;;24.80;34.80;;;;;;5025666;28;20467;-90
2022/05/15 11:18:56;;;;;;;4.10;3.10;;;24.80;34.40;;;;;;5024051;28;20473;-89
2022/05/15 11:21:39;;;;;;;3.30;2.50;;;24.70;34.00;;;;;;5021112;28;20476;-89
2022/05/15 11:24:16;;;;;;;3.57;3.20;;;24.70;34.00;;;;;;5036738;28;20457;-89
2022/05/15 11:26:54;;;;;;;8.70;3.20;;;24.70;34.20;;;;;;5016263;28;20795;-88
2022/05/15 11:29:20;;;;;;;12.90;3.40;;;24.70;34.30;;;;;;5007952;28;20440;-89
2022/05/15 11:31:52;;;;;;;6.07;3.53;;;24.80;34.20;;;;;;5016353;28;20421;-89
2022/05/15 11:34:18;;;;;;;4.50;3.20;;;24.70;35.00;;;;;;5016770;28;20449;-89
2022/05/15 11:36:46;;;;;;;5.27;2.90;;;24.70;34.80;;;;;;5018776;28;20426;-88
2022/05/15 11:39:15;;;;;;;8.50;3.60;;;24.90;34.70;;;;;;5015461;28;20457;-89
2022/05/15 11:41:43;;;;;;;17.30;3.63;;;24.90;34.40;;;;;;5028350;28;20428;-90
2022/05/15 11:44:35;;;;;;;7.63;3.20;;;25.00;33.60;;;;;;5028572;28;20425;-90
2022/05/15 11:47:20;;;;;;;6.33;2.77;;;25.10;32.80;;;;;;5013426;28;20476;-89
2022/05/15 11:50:38;;;;;;;5.53;3.07;;;25.20;33.30;;;;;;5004306;28;20446;-89
2022/05/15 11:53:11;;;;;;;5.17;2.87;;;25.30;33.10;;;;;;4998394;28;21102;-91
2022/05/15 11:55:56;;;;;;;6.60;2.97;;;25.30;32.70;;;;;;5015469;28;20544;-91
2022/05/15 11:58:41;;;;;;;4.60;2.57;;;25.20;32.00;;;;;;5014893;28;20449;-91
2022/05/15 12:01:28;;;;;;;7.50;3.10;;;25.20;33.30;;;;;;5014162;28;20422;-91
2022/05/15 12:03:59;;;;;;;5.13;2.70;;;25.30;32.40;;;;;;4997617;28;20416;-92
2022/05/15 12:06:57;;;;;;;8.00;3.20;;;25.30;32.10;;;;;;5020382;28;21007;-90
2022/05/15 12:09:41;;;;;;;5.23;2.53;;;25.30;32.70;;;;;;4994569;28;20484;-89
2022/05/15 12:12:30;;;;;;;9.47;2.80;;;25.40;33.30;;;;;;5014786;28;20798;-90
2022/05/15 12:15:27;;;;;;;9.50;3.47;;;25.50;32.80;;;;;;5015395;28;20429;-91
2022/05/15 12:17:57;;;;;;;3.93;3.23;;;25.60;32.10;;;;;;5013287;28;20917;-89
2022/05/15 12:20:36;;;;;;;5.70;2.60;;;25.60;32.10;;;;;;5019896;28;20501;-88
2022/05/15 12:23:18;;;;;;;4.93;2.90;;;25.60;32.10;;;;;;5012730;28;20424;-89
2022/05/15 12:26:15;;;;;;;3.60;2.70;;;25.60;33.00;;;;;;5013357;28;20425;-89
2022/05/15 12:29:26;;;;;;;6.77;3.23;;;25.70;32.90;;;;;;5016659;28;20454;-89
2022/05/15 12:31:55;;;;;;;6.50;3.07;;;25.70;32.70;;;;;;5014081;28;20434;-89
2022/05/15 12:34:38;;;;;;;11.23;4.43;;;25.70;32.10;;;;;;5013868;28;20441;-89
2022/05/15 12:37:11;;;;;;;8.97;3.23;;;25.70;31.90;;;;;;5014323;28;20477;-88
2022/05/15 12:39:42;;;;;;;5.63;3.03;;;25.70;31.90;;;;;;5014172;28;20889;-89
2022/05/15 12:42:41;;;;;;;8.20;3.10;;;25.70;31.80;;;;;;5014378;28;20441;-88
2022/05/15 12:45:10;;;;;;;5.93;2.90;;;25.70;32.20;;;;;;5014355;28;20411;-91
2022/05/15 12:47:36;;;;;;;5.47;3.10;;;25.80;33.50;;;;;;5007380;28;20430;-89
2022/05/15 12:50:14;;;;;;;5.53;2.87;;;25.80;31.90;;;;;;5015196;28;20468;-88
2022/05/15 12:52:39;;;;;;;4.73;3.03;;;25.90;32.40;;;;;;5013585;28;20410;-87
2022/05/15 12:55:21;;;;;;;6.30;3.33;;;25.90;31.90;;;;;;5015084;28;20544;-88
2022/05/15 12:57:54;;;;;;;4.60;3.17;;;26.00;32.40;;;;;;4998001;28;20426;-91
2022/05/15 13:00:29;;;;;;;11.13;3.70;;;26.10;32.70;;;;;;5014059;28;20496;-89
2022/05/15 13:03:18;;;;;;;6.37;2.80;;;26.20;31.90;;;;;;5013985;28;20407;-89
2022/05/15 13:05:47;;;;;;;8.30;3.33;;;26.20;31.80;;;;;;5016486;28;20468;-88
2022/05/15 13:08:13;;;;;;;4.67;2.60;;;26.20;32.20;;;;;;5014733;28;20428;-89
2022/05/15 13:11:03;;;;;;;5.53;3.33;;;26.30;32.40;;;;;;5016010;28;20772;-89
2022/05/15 13:13:35;;;;;;;8.83;3.27;;;26.40;33.10;;;;;;5014065;28;20187;-89
2022/05/15 13:16:03;;;;;;;5.17;3.13;;;26.50;32.30;;;;;;5002412;28;20422;-89
2022/05/15 13:18:32;;;;;;;10.77;4.03;;;26.50;31.50;;;;;;5022187;28;20896;-89